sensor_id;sensor_type;location;lat;lon;timestamp;temperature;humidity
82991;DHT22;72806;50.832;4.864;2023-09-19T00:01:35;17.10;88.30
82991;DHT22;72806;50.832;4.864;2023-09-19T00:04:03;17.10;88.30
82991;DHT22;72806;50.832;4.864;2023-09-19T00:06:35;17.10;88.30
82991;DHT22;72806;50.832;4.864;2023-09-19T00:09:03;17.10;88.40
82991;DHT22;72806;50.832;4.864;2023-09-19T00:11:30;17.10;88.40
82991;DHT22;72806;50.832;4.864;2023-09-19T00:13:57;17.10;88.60
82991;DHT22;72806;50.832;4.864;2023-09-19T00:16:26;17.00;88.70
82991;DHT22;72806;50.832;4.864;2023-09-19T00:18:53;17.00;88.80
82991;DHT22;72806;50.832;4.864;2023-09-19T00:21:22;17.00;88.90
82991;DHT22;72806;50.832;4.864;2023-09-19T00:23:49;17.00;88.90
82991;DHT22;72806;50.832;4.864;2023-09-19T00:26:17;17.00;88.90
82991;DHT22;72806;50.832;4.864;2023-09-19T00:28:44;17.00;89.00
82991;DHT22;72806;50.832;4.864;2023-09-19T00:31:11;17.00;89.00
82991;DHT22;72806;50.832;4.864;2023-09-19T00:33:38;17.00;89.10
82991;DHT22;72806;50.832;4.864;2023-09-19T00:36:05;17.00;89.10
82991;DHT22;72806;50.832;4.864;2023-09-19T00:38:34;17.00;89.30
82991;DHT22;72806;50.832;4.864;2023-09-19T00:41:01;17.00;89.40
82991;DHT22;72806;50.832;4.864;2023-09-19T00:43:28;17.00;89.30
82991;DHT22;72806;50.832;4.864;2023-09-19T00:46:00;17.10;89.30
82991;DHT22;72806;50.832;4.864;2023-09-19T00:48:29;17.10;89.30
82991;DHT22;72806;50.832;4.864;2023-09-19T00:50:58;17.00;89.40
82991;DHT22;72806;50.832;4.864;2023-09-19T00:53:30;17.10;89.60
82991;DHT22;72806;50.832;4.864;2023-09-19T00:55:59;17.00;89.60
82991;DHT22;72806;50.832;4.864;2023-09-19T00:58:26;17.00;89.70
82991;DHT22;72806;50.832;4.864;2023-09-19T01:00:58;17.00;89.80
82991;DHT22;72806;50.832;4.864;2023-09-19T01:03:25;17.00;89.80
82991;DHT22;72806;50.832;4.864;2023-09-19T01:05:52;17.00;89.90
82991;DHT22;72806;50.832;4.864;2023-09-19T01:08:19;17.00;89.90
82991;DHT22;72806;50.832;4.864;2023-09-19T01:10:51;17.00;90.00
82991;DHT22;72806;50.832;4.864;2023-09-19T01:13:27;17.00;90.00
82991;DHT22;72806;50.832;4.864;2023-09-19T01:16:02;16.90;90.00
82991;DHT22;72806;50.832;4.864;2023-09-19T01:18:37;16.90;90.00
82991;DHT22;72806;50.832;4.864;2023-09-19T01:21:13;16.90;90.10
82991;DHT22;72806;50.832;4.864;2023-09-19T01:24:07;16.90;90.10
82991;DHT22;72806;50.832;4.864;2023-09-19T01:26:53;16.80;90.10
82991;DHT22;72806;50.832;4.864;2023-09-19T01:29:34;16.90;90.20
82991;DHT22;72806;50.832;4.864;2023-09-19T01:32:06;16.80;90.10
82991;DHT22;72806;50.832;4.864;2023-09-19T01:34:48;16.80;90.10
82991;DHT22;72806;50.832;4.864;2023-09-19T01:37:16;16.80;90.10
82991;DHT22;72806;50.832;4.864;2023-09-19T01:39:46;16.80;90.10
82991;DHT22;72806;50.832;4.864;2023-09-19T01:42:22;16.70;90.00
82991;DHT22;72806;50.832;4.864;2023-09-19T01:44:57;16.70;90.00
82991;DHT22;72806;50.832;4.864;2023-09-19T01:47:32;16.70;90.00
82991;DHT22;72806;50.832;4.864;2023-09-19T01:50:13;16.70;89.90
82991;DHT22;72806;50.832;4.864;2023-09-19T01:52:47;16.70;89.90
82991;DHT22;72806;50.832;4.864;2023-09-19T01:55:16;16.60;89.80
82991;DHT22;72806;50.832;4.864;2023-09-19T01:57:49;16.60;90.00
82991;DHT22;72806;50.832;4.864;2023-09-19T02:00:20;16.60;90.30
82991;DHT22;72806;50.832;4.864;2023-09-19T02:02:50;16.60;90.00
82991;DHT22;72806;50.832;4.864;2023-09-19T02:05:23;16.50;90.00
82991;DHT22;72806;50.832;4.864;2023-09-19T02:07:51;16.50;90.20
82991;DHT22;72806;50.832;4.864;2023-09-19T02:10:19;16.50;90.00
82991;DHT22;72806;50.832;4.864;2023-09-19T02:12:45;16.50;90.00
82991;DHT22;72806;50.832;4.864;2023-09-19T02:15:13;16.50;90.00
82991;DHT22;72806;50.832;4.864;2023-09-19T02:17:41;16.50;90.10
82991;DHT22;72806;50.832;4.864;2023-09-19T02:20:11;16.40;90.10
82991;DHT22;72806;50.832;4.864;2023-09-19T02:22:40;16.40;90.10
82991;DHT22;72806;50.832;4.864;2023-09-19T02:25:08;16.40;90.10
82991;DHT22;72806;50.832;4.864;2023-09-19T02:27:35;16.40;90.10
82991;DHT22;72806;50.832;4.864;2023-09-19T02:30:03;16.40;90.10
82991;DHT22;72806;50.832;4.864;2023-09-19T02:32:31;16.40;90.10
82991;DHT22;72806;50.832;4.864;2023-09-19T02:35:02;16.40;90.10
82991;DHT22;72806;50.832;4.864;2023-09-19T02:37:31;16.40;90.10
82991;DHT22;72806;50.832;4.864;2023-09-19T02:39:59;16.30;90.00
82991;DHT22;72806;50.832;4.864;2023-09-19T02:42:26;16.30;90.00
82991;DHT22;72806;50.832;4.864;2023-09-19T02:44:53;16.30;90.00
82991;DHT22;72806;50.832;4.864;2023-09-19T02:47:20;16.30;90.00
82991;DHT22;72806;50.832;4.864;2023-09-19T02:49:47;16.30;90.00
82991;DHT22;72806;50.832;4.864;2023-09-19T02:52:14;16.30;89.90
82991;DHT22;72806;50.832;4.864;2023-09-19T02:54:42;16.30;90.00
82991;DHT22;72806;50.832;4.864;2023-09-19T02:57:10;16.30;90.00
82991;DHT22;72806;50.832;4.864;2023-09-19T02:59:40;16.20;90.00
82991;DHT22;72806;50.832;4.864;2023-09-19T03:02:07;16.20;90.00
82991;DHT22;72806;50.832;4.864;2023-09-19T03:04:35;16.20;90.10
82991;DHT22;72806;50.832;4.864;2023-09-19T03:07:03;16.20;90.10
82991;DHT22;72806;50.832;4.864;2023-09-19T03:09:30;16.20;90.10
82991;DHT22;72806;50.832;4.864;2023-09-19T03:11:58;16.20;90.10
82991;DHT22;72806;50.832;4.864;2023-09-19T03:14:26;16.30;90.10
82991;DHT22;72806;50.832;4.864;2023-09-19T03:16:55;16.30;90.10
82991;DHT22;72806;50.832;4.864;2023-09-19T03:19:22;16.40;90.00
82991;DHT22;72806;50.832;4.864;2023-09-19T03:21:51;16.40;90.00
82991;DHT22;72806;50.832;4.864;2023-09-19T03:24:19;16.50;89.80
82991;DHT22;72806;50.832;4.864;2023-09-19T03:26:46;16.50;89.40
82991;DHT22;72806;50.832;4.864;2023-09-19T03:29:14;16.60;89.10
82991;DHT22;72806;50.832;4.864;2023-09-19T03:31:42;16.60;88.90
82991;DHT22;72806;50.832;4.864;2023-09-19T03:34:09;16.70;88.70
82991;DHT22;72806;50.832;4.864;2023-09-19T03:36:36;16.70;88.30
82991;DHT22;72806;50.832;4.864;2023-09-19T03:39:04;16.70;88.00
82991;DHT22;72806;50.832;4.864;2023-09-19T03:41:32;16.80;87.80
82991;DHT22;72806;50.832;4.864;2023-09-19T03:44:03;16.80;87.50
82991;DHT22;72806;50.832;4.864;2023-09-19T03:46:31;16.80;87.40
82991;DHT22;72806;50.832;4.864;2023-09-19T03:48:58;16.80;87.10
82991;DHT22;72806;50.832;4.864;2023-09-19T03:51:25;16.80;86.90
82991;DHT22;72806;50.832;4.864;2023-09-19T03:53:52;16.80;86.90
82991;DHT22;72806;50.832;4.864;2023-09-19T03:56:19;16.80;87.00
82991;DHT22;72806;50.832;4.864;2023-09-19T03:58:46;16.70;87.10
82991;DHT22;72806;50.832;4.864;2023-09-19T04:01:13;16.70;87.10
82991;DHT22;72806;50.832;4.864;2023-09-19T04:03:43;16.70;87.10
82991;DHT22;72806;50.832;4.864;2023-09-19T04:06:13;16.70;87.80
82991;DHT22;72806;50.832;4.864;2023-09-19T04:08:40;16.70;87.20
82991;DHT22;72806;50.832;4.864;2023-09-19T04:11:08;16.70;87.30
82991;DHT22;72806;50.832;4.864;2023-09-19T04:13:35;16.70;87.40
82991;DHT22;72806;50.832;4.864;2023-09-19T04:16:02;16.70;87.40
82991;DHT22;72806;50.832;4.864;2023-09-19T04:18:29;16.70;87.40
82991;DHT22;72806;50.832;4.864;2023-09-19T04:21:00;16.60;87.30
82991;DHT22;72806;50.832;4.864;2023-09-19T04:23:29;16.60;87.60
82991;DHT22;72806;50.832;4.864;2023-09-19T04:25:56;16.50;87.80
82991;DHT22;72806;50.832;4.864;2023-09-19T04:28:24;16.40;87.90
82991;DHT22;72806;50.832;4.864;2023-09-19T04:30:53;16.40;88.20
82991;DHT22;72806;50.832;4.864;2023-09-19T04:33:20;16.40;88.50
82991;DHT22;72806;50.832;4.864;2023-09-19T04:35:49;16.30;88.70
82991;DHT22;72806;50.832;4.864;2023-09-19T04:38:17;16.30;89.00
82991;DHT22;72806;50.832;4.864;2023-09-19T04:40:44;16.20;89.40
82991;DHT22;72806;50.832;4.864;2023-09-19T04:43:11;16.20;89.70
82991;DHT22;72806;50.832;4.864;2023-09-19T04:45:39;16.10;89.90
82991;DHT22;72806;50.832;4.864;2023-09-19T04:48:06;16.10;90.00
82991;DHT22;72806;50.832;4.864;2023-09-19T04:50:34;16.10;90.10
82991;DHT22;72806;50.832;4.864;2023-09-19T04:53:03;16.10;90.20
82991;DHT22;72806;50.832;4.864;2023-09-19T04:55:31;16.10;90.30
82991;DHT22;72806;50.832;4.864;2023-09-19T04:57:58;16.10;90.40
82991;DHT22;72806;50.832;4.864;2023-09-19T05:00:25;16.00;90.40
82991;DHT22;72806;50.832;4.864;2023-09-19T05:02:56;16.00;90.50
82991;DHT22;72806;50.832;4.864;2023-09-19T05:05:23;16.00;90.50
82991;DHT22;72806;50.832;4.864;2023-09-19T05:07:52;16.00;90.50
82991;DHT22;72806;50.832;4.864;2023-09-19T05:10:20;16.00;90.60
82991;DHT22;72806;50.832;4.864;2023-09-19T05:12:53;16.00;90.60
82991;DHT22;72806;50.832;4.864;2023-09-19T05:15:20;16.00;90.60
82991;DHT22;72806;50.832;4.864;2023-09-19T05:17:50;16.00;90.60
82991;DHT22;72806;50.832;4.864;2023-09-19T05:20:20;15.90;90.60
82991;DHT22;72806;50.832;4.864;2023-09-19T05:22:58;16.00;90.60
82991;DHT22;72806;50.832;4.864;2023-09-19T05:25:26;15.90;90.60
82991;DHT22;72806;50.832;4.864;2023-09-19T05:27:56;15.90;90.60
82991;DHT22;72806;50.832;4.864;2023-09-19T05:30:24;15.90;90.70
82991;DHT22;72806;50.832;4.864;2023-09-19T05:32:53;15.90;90.70
82991;DHT22;72806;50.832;4.864;2023-09-19T05:35:20;15.90;90.70
82991;DHT22;72806;50.832;4.864;2023-09-19T05:37:48;15.90;90.70
82991;DHT22;72806;50.832;4.864;2023-09-19T05:40:17;16.00;90.80
82991;DHT22;72806;50.832;4.864;2023-09-19T05:42:45;16.00;90.70
82991;DHT22;72806;50.832;4.864;2023-09-19T05:45:14;16.00;90.70
82991;DHT22;72806;50.832;4.864;2023-09-19T05:47:44;16.00;90.80
82991;DHT22;72806;50.832;4.864;2023-09-19T05:50:12;16.00;91.10
82991;DHT22;72806;50.832;4.864;2023-09-19T05:52:40;16.00;90.80
82991;DHT22;72806;50.832;4.864;2023-09-19T05:55:10;16.00;90.80
82991;DHT22;72806;50.832;4.864;2023-09-19T05:57:37;16.10;90.80
82991;DHT22;72806;50.832;4.864;2023-09-19T06:00:06;16.10;90.80
82991;DHT22;72806;50.832;4.864;2023-09-19T06:02:37;16.10;90.80
82991;DHT22;72806;50.832;4.864;2023-09-19T06:05:06;16.10;90.80
82991;DHT22;72806;50.832;4.864;2023-09-19T06:07:36;16.20;90.70
82991;DHT22;72806;50.832;4.864;2023-09-19T06:10:04;16.20;90.70
82991;DHT22;72806;50.832;4.864;2023-09-19T06:12:32;16.20;91.00
82991;DHT22;72806;50.832;4.864;2023-09-19T06:15:03;16.30;90.70
82991;DHT22;72806;50.832;4.864;2023-09-19T06:17:31;16.30;90.80
82991;DHT22;72806;50.832;4.864;2023-09-19T06:19:59;16.40;90.60
82991;DHT22;72806;50.832;4.864;2023-09-19T06:22:26;16.40;90.50
82991;DHT22;72806;50.832;4.864;2023-09-19T06:24:53;16.50;90.50
82991;DHT22;72806;50.832;4.864;2023-09-19T06:27:20;16.50;90.40
82991;DHT22;72806;50.832;4.864;2023-09-19T06:29:47;16.60;90.30
82991;DHT22;72806;50.832;4.864;2023-09-19T06:32:14;16.70;90.20
82991;DHT22;72806;50.832;4.864;2023-09-19T06:34:41;16.80;90.10
82991;DHT22;72806;50.832;4.864;2023-09-19T06:37:10;16.80;90.00
82991;DHT22;72806;50.832;4.864;2023-09-19T06:39:37;16.90;89.90
82991;DHT22;72806;50.832;4.864;2023-09-19T06:42:04;17.00;89.70
82991;DHT22;72806;50.832;4.864;2023-09-19T06:44:31;17.00;89.30
82991;DHT22;72806;50.832;4.864;2023-09-19T06:46:58;17.10;89.20
82991;DHT22;72806;50.832;4.864;2023-09-19T06:49:25;17.20;88.80
82991;DHT22;72806;50.832;4.864;2023-09-19T06:51:54;17.40;88.70
82991;DHT22;72806;50.832;4.864;2023-09-19T06:54:24;17.50;88.10
82991;DHT22;72806;50.832;4.864;2023-09-19T06:56:51;17.70;87.60
82991;DHT22;72806;50.832;4.864;2023-09-19T06:59:21;17.90;87.00
82991;DHT22;72806;50.832;4.864;2023-09-19T07:01:48;18.10;86.40
82991;DHT22;72806;50.832;4.864;2023-09-19T07:04:16;18.20;85.60
82991;DHT22;72806;50.832;4.864;2023-09-19T07:06:48;18.30;85.30
82991;DHT22;72806;50.832;4.864;2023-09-19T07:09:16;18.30;84.40
82991;DHT22;72806;50.832;4.864;2023-09-19T07:11:46;18.30;84.20
82991;DHT22;72806;50.832;4.864;2023-09-19T07:14:16;18.30;83.60
82991;DHT22;72806;50.832;4.864;2023-09-19T07:16:43;18.30;83.60
82991;DHT22;72806;50.832;4.864;2023-09-19T07:19:10;18.30;83.60
82991;DHT22;72806;50.832;4.864;2023-09-19T07:21:37;18.20;83.40
82991;DHT22;72806;50.832;4.864;2023-09-19T07:24:05;18.20;83.40
82991;DHT22;72806;50.832;4.864;2023-09-19T07:26:33;18.30;82.90
82991;DHT22;72806;50.832;4.864;2023-09-19T07:29:02;18.40;82.80
82991;DHT22;72806;50.832;4.864;2023-09-19T07:31:30;18.50;82.50
82991;DHT22;72806;50.832;4.864;2023-09-19T07:33:57;18.80;81.90
82991;DHT22;72806;50.832;4.864;2023-09-19T07:36:24;19.00;80.60
82991;DHT22;72806;50.832;4.864;2023-09-19T07:38:51;19.30;79.60
82991;DHT22;72806;50.832;4.864;2023-09-19T07:41:18;19.50;78.60
82991;DHT22;72806;50.832;4.864;2023-09-19T07:43:46;19.70;77.40
82991;DHT22;72806;50.832;4.864;2023-09-19T07:46:15;20.00;76.70
82991;DHT22;72806;50.832;4.864;2023-09-19T07:48:42;20.40;75.30
82991;DHT22;72806;50.832;4.864;2023-09-19T07:51:14;20.60;73.90
82991;DHT22;72806;50.832;4.864;2023-09-19T07:53:41;20.80;72.60
82991;DHT22;72806;50.832;4.864;2023-09-19T07:56:10;20.90;71.50
82991;DHT22;72806;50.832;4.864;2023-09-19T07:58:39;21.00;71.00
82991;DHT22;72806;50.832;4.864;2023-09-19T08:01:10;21.20;70.00
82991;DHT22;72806;50.832;4.864;2023-09-19T08:03:40;21.20;68.30
82991;DHT22;72806;50.832;4.864;2023-09-19T08:06:09;21.20;68.00
82991;DHT22;72806;50.832;4.864;2023-09-19T08:08:36;21.20;67.20
82991;DHT22;72806;50.832;4.864;2023-09-19T08:11:04;21.30;67.40
82991;DHT22;72806;50.832;4.864;2023-09-19T08:13:37;21.40;67.30
82991;DHT22;72806;50.832;4.864;2023-09-19T08:16:07;21.60;66.40
82991;DHT22;72806;50.832;4.864;2023-09-19T08:18:33;21.70;65.30
82991;DHT22;72806;50.832;4.864;2023-09-19T08:21:02;21.70;64.70
82991;DHT22;72806;50.832;4.864;2023-09-19T08:23:29;21.80;64.40
82991;DHT22;72806;50.832;4.864;2023-09-19T08:25:58;21.90;63.90
82991;DHT22;72806;50.832;4.864;2023-09-19T08:28:28;21.90;62.90
82991;DHT22;72806;50.832;4.864;2023-09-19T08:30:55;21.90;62.30
82991;DHT22;72806;50.832;4.864;2023-09-19T08:33:23;22.00;62.30
82991;DHT22;72806;50.832;4.864;2023-09-19T08:35:50;22.10;61.80
82991;DHT22;72806;50.832;4.864;2023-09-19T08:38:19;22.20;61.30
82991;DHT22;72806;50.832;4.864;2023-09-19T08:40:46;22.20;61.00
82991;DHT22;72806;50.832;4.864;2023-09-19T08:43:13;22.10;60.00
82991;DHT22;72806;50.832;4.864;2023-09-19T08:45:40;22.00;59.80
82991;DHT22;72806;50.832;4.864;2023-09-19T08:48:16;21.90;59.60
82991;DHT22;72806;50.832;4.864;2023-09-19T08:50:49;21.90;59.70
82991;DHT22;72806;50.832;4.864;2023-09-19T08:53:26;21.90;59.80
82991;DHT22;72806;50.832;4.864;2023-09-19T08:55:55;21.90;59.80
82991;DHT22;72806;50.832;4.864;2023-09-19T08:58:26;21.90;59.70
82991;DHT22;72806;50.832;4.864;2023-09-19T09:00:56;21.90;59.80
82991;DHT22;72806;50.832;4.864;2023-09-19T09:03:27;22.00;59.60
82991;DHT22;72806;50.832;4.864;2023-09-19T09:05:58;22.10;59.50
82991;DHT22;72806;50.832;4.864;2023-09-19T09:08:26;22.20;59.50
82991;DHT22;72806;50.832;4.864;2023-09-19T09:10:54;22.20;59.00
82991;DHT22;72806;50.832;4.864;2023-09-19T09:13:21;22.20;58.60
82991;DHT22;72806;50.832;4.864;2023-09-19T09:15:50;22.10;58.30
82991;DHT22;72806;50.832;4.864;2023-09-19T09:18:17;21.90;58.30
82991;DHT22;72806;50.832;4.864;2023-09-19T09:20:44;21.70;58.40
82991;DHT22;72806;50.832;4.864;2023-09-19T09:23:12;21.60;58.90
82991;DHT22;72806;50.832;4.864;2023-09-19T09:25:51;21.60;59.10
82991;DHT22;72806;50.832;4.864;2023-09-19T09:28:22;21.70;59.00
82991;DHT22;72806;50.832;4.864;2023-09-19T09:30:50;21.60;58.70
82991;DHT22;72806;50.832;4.864;2023-09-19T09:33:18;21.60;58.40
82991;DHT22;72806;50.832;4.864;2023-09-19T09:35:49;21.50;58.20
82991;DHT22;72806;50.832;4.864;2023-09-19T09:38:18;21.50;58.10
82991;DHT22;72806;50.832;4.864;2023-09-19T09:40:51;21.50;58.00
82991;DHT22;72806;50.832;4.864;2023-09-19T09:43:32;21.50;58.20
82991;DHT22;72806;50.832;4.864;2023-09-19T09:46:11;21.50;58.20
82991;DHT22;72806;50.832;4.864;2023-09-19T09:49:10;21.60;58.10
82991;DHT22;72806;50.832;4.864;2023-09-19T09:51:59;21.60;58.00
82991;DHT22;72806;50.832;4.864;2023-09-19T09:54:32;21.80;58.00
82991;DHT22;72806;50.832;4.864;2023-09-19T09:57:05;21.80;57.50
82991;DHT22;72806;50.832;4.864;2023-09-19T09:59:47;21.70;57.00
82991;DHT22;72806;50.832;4.864;2023-09-19T10:02:17;21.50;56.90
82991;DHT22;72806;50.832;4.864;2023-09-19T10:04:50;21.50;57.30
82991;DHT22;72806;50.832;4.864;2023-09-19T10:07:36;21.50;57.40
82991;DHT22;72806;50.832;4.864;2023-09-19T10:10:07;21.40;57.50
82991;DHT22;72806;50.832;4.864;2023-09-19T10:12:46;21.40;57.60
82991;DHT22;72806;50.832;4.864;2023-09-19T10:15:15;21.40;57.50
82991;DHT22;72806;50.832;4.864;2023-09-19T10:17:44;21.40;57.50
82991;DHT22;72806;50.832;4.864;2023-09-19T10:20:16;21.30;57.60
82991;DHT22;72806;50.832;4.864;2023-09-19T10:23:05;21.30;57.80
82991;DHT22;72806;50.832;4.864;2023-09-19T10:25:37;21.30;57.90
82991;DHT22;72806;50.832;4.864;2023-09-19T10:28:08;21.20;57.70
82991;DHT22;72806;50.832;4.864;2023-09-19T10:30:38;21.20;57.30
82991;DHT22;72806;50.832;4.864;2023-09-19T10:33:09;21.20;57.60
82991;DHT22;72806;50.832;4.864;2023-09-19T10:35:39;21.30;57.70
82991;DHT22;72806;50.832;4.864;2023-09-19T10:38:09;21.40;57.70
82991;DHT22;72806;50.832;4.864;2023-09-19T10:40:37;21.50;57.60
82991;DHT22;72806;50.832;4.864;2023-09-19T10:43:12;21.50;57.40
82991;DHT22;72806;50.832;4.864;2023-09-19T16:09:35;19.50;89.90
82991;DHT22;72806;50.832;4.864;2023-09-19T16:12:03;19.70;77.90
82991;DHT22;72806;50.832;4.864;2023-09-19T16:14:30;20.10;76.90
82991;DHT22;72806;50.832;4.864;2023-09-19T16:16:57;20.40;75.50
82991;DHT22;72806;50.832;4.864;2023-09-19T16:19:25;20.70;74.40
82991;DHT22;72806;50.832;4.864;2023-09-19T16:21:52;20.90;73.40
82991;DHT22;72806;50.832;4.864;2023-09-19T16:24:19;21.00;72.60
82991;DHT22;72806;50.832;4.864;2023-09-19T16:26:47;21.10;72.00
82991;DHT22;72806;50.832;4.864;2023-09-19T16:29:15;21.20;71.00
82991;DHT22;72806;50.832;4.864;2023-09-19T16:31:42;21.20;70.50
82991;DHT22;72806;50.832;4.864;2023-09-19T16:34:09;21.30;70.10
82991;DHT22;72806;50.832;4.864;2023-09-19T16:36:36;21.30;69.40
82991;DHT22;72806;50.832;4.864;2023-09-19T16:39:03;21.30;68.90
82991;DHT22;72806;50.832;4.864;2023-09-19T16:41:33;21.30;68.60
82991;DHT22;72806;50.832;4.864;2023-09-19T16:44:02;21.30;68.20
82991;DHT22;72806;50.832;4.864;2023-09-19T16:46:34;21.30;67.80
82991;DHT22;72806;50.832;4.864;2023-09-19T16:49:02;21.20;67.40
82991;DHT22;72806;50.832;4.864;2023-09-19T16:51:30;21.30;67.40
82991;DHT22;72806;50.832;4.864;2023-09-19T16:53:57;21.30;67.00
82991;DHT22;72806;50.832;4.864;2023-09-19T16:56:24;21.30;66.50
82991;DHT22;72806;50.832;4.864;2023-09-19T16:58:53;21.30;66.90
82991;DHT22;72806;50.832;4.864;2023-09-19T17:01:21;21.30;65.90
82991;DHT22;72806;50.832;4.864;2023-09-19T17:03:49;21.20;66.40
82991;DHT22;72806;50.832;4.864;2023-09-19T17:06:22;21.20;65.60
82991;DHT22;72806;50.832;4.864;2023-09-19T17:08:51;21.20;65.50
82991;DHT22;72806;50.832;4.864;2023-09-19T17:11:18;21.20;65.40
82991;DHT22;72806;50.832;4.864;2023-09-19T17:13:47;21.10;65.40
82991;DHT22;72806;50.832;4.864;2023-09-19T17:16:18;21.10;66.10
82991;DHT22;72806;50.832;4.864;2023-09-19T17:18:50;21.10;65.50
82991;DHT22;72806;50.832;4.864;2023-09-19T17:21:17;21.10;65.30
82991;DHT22;72806;50.832;4.864;2023-09-19T17:23:44;21.10;65.40
82991;DHT22;72806;50.832;4.864;2023-09-19T17:26:12;21.00;65.10
82991;DHT22;72806;50.832;4.864;2023-09-19T17:28:40;21.00;65.00
82991;DHT22;72806;50.832;4.864;2023-09-19T17:31:09;21.00;65.10
82991;DHT22;72806;50.832;4.864;2023-09-19T17:33:37;21.00;65.20
82991;DHT22;72806;50.832;4.864;2023-09-19T17:36:10;20.90;65.10
82991;DHT22;72806;50.832;4.864;2023-09-19T17:38:39;20.90;65.00
82991;DHT22;72806;50.832;4.864;2023-09-19T17:41:06;20.80;65.10
82991;DHT22;72806;50.832;4.864;2023-09-19T17:43:34;20.80;65.30
82991;DHT22;72806;50.832;4.864;2023-09-19T17:46:07;20.80;65.40
82991;DHT22;72806;50.832;4.864;2023-09-19T17:48:35;20.80;65.50
82991;DHT22;72806;50.832;4.864;2023-09-19T17:51:02;20.80;65.50
82991;DHT22;72806;50.832;4.864;2023-09-19T17:53:31;20.70;65.60
82991;DHT22;72806;50.832;4.864;2023-09-19T17:56:00;20.70;65.70
82991;DHT22;72806;50.832;4.864;2023-09-19T17:58:27;20.70;65.70
82991;DHT22;72806;50.832;4.864;2023-09-19T18:00:55;20.70;65.90
82991;DHT22;72806;50.832;4.864;2023-09-19T18:03:23;20.70;65.80
82991;DHT22;72806;50.832;4.864;2023-09-19T18:05:51;20.60;66.50
82991;DHT22;72806;50.832;4.864;2023-09-19T18:08:19;20.60;65.80
82991;DHT22;72806;50.832;4.864;2023-09-19T18:10:48;20.60;66.10
82991;DHT22;72806;50.832;4.864;2023-09-19T18:13:15;20.60;66.00
82991;DHT22;72806;50.832;4.864;2023-09-19T18:15:42;20.50;66.10
82991;DHT22;72806;50.832;4.864;2023-09-19T18:18:09;20.50;66.20
82991;DHT22;72806;50.832;4.864;2023-09-19T18:20:38;20.50;66.10
82991;DHT22;72806;50.832;4.864;2023-09-19T18:23:05;20.50;66.10
82991;DHT22;72806;50.832;4.864;2023-09-19T18:25:32;20.50;66.20
82991;DHT22;72806;50.832;4.864;2023-09-19T18:28:01;20.50;66.30
82991;DHT22;72806;50.832;4.864;2023-09-19T18:30:29;20.50;66.40
82991;DHT22;72806;50.832;4.864;2023-09-19T18:32:57;20.50;66.30
82991;DHT22;72806;50.832;4.864;2023-09-19T18:35:24;20.40;66.50
82991;DHT22;72806;50.832;4.864;2023-09-19T18:37:53;20.40;66.50
82991;DHT22;72806;50.832;4.864;2023-09-19T18:40:21;20.40;66.70
82991;DHT22;72806;50.832;4.864;2023-09-19T18:42:48;20.40;66.80
82991;DHT22;72806;50.832;4.864;2023-09-19T18:45:16;20.40;66.90
82991;DHT22;72806;50.832;4.864;2023-09-19T18:47:43;20.40;66.80
82991;DHT22;72806;50.832;4.864;2023-09-19T18:50:10;20.40;66.90
82991;DHT22;72806;50.832;4.864;2023-09-19T18:52:39;20.30;66.90
82991;DHT22;72806;50.832;4.864;2023-09-19T18:55:08;20.30;67.10
82991;DHT22;72806;50.832;4.864;2023-09-19T18:57:36;20.30;67.00
82991;DHT22;72806;50.832;4.864;2023-09-19T19:00:04;20.30;67.20
82991;DHT22;72806;50.832;4.864;2023-09-19T19:02:33;20.30;67.30
82991;DHT22;72806;50.832;4.864;2023-09-19T19:05:00;20.20;67.40
82991;DHT22;72806;50.832;4.864;2023-09-19T19:07:27;20.20;67.40
82991;DHT22;72806;50.832;4.864;2023-09-19T19:09:53;20.20;67.50
82991;DHT22;72806;50.832;4.864;2023-09-19T19:12:21;20.20;67.80
82991;DHT22;72806;50.832;4.864;2023-09-19T19:14:48;20.20;68.00
82991;DHT22;72806;50.832;4.864;2023-09-19T19:17:15;20.20;67.80
82991;DHT22;72806;50.832;4.864;2023-09-19T19:19:44;20.30;68.10
82991;DHT22;72806;50.832;4.864;2023-09-19T19:22:11;20.30;68.10
82991;DHT22;72806;50.832;4.864;2023-09-19T19:24:38;20.30;68.00
82991;DHT22;72806;50.832;4.864;2023-09-19T19:27:05;20.30;68.70
82991;DHT22;72806;50.832;4.864;2023-09-19T19:29:32;20.30;68.10
82991;DHT22;72806;50.832;4.864;2023-09-19T19:32:00;20.30;68.10
82991;DHT22;72806;50.832;4.864;2023-09-19T19:34:27;20.30;68.20
82991;DHT22;72806;50.832;4.864;2023-09-19T19:36:55;20.30;68.10
82991;DHT22;72806;50.832;4.864;2023-09-19T19:39:22;20.30;68.30
82991;DHT22;72806;50.832;4.864;2023-09-19T19:41:51;20.30;68.30
82991;DHT22;72806;50.832;4.864;2023-09-19T19:44:18;20.30;68.20
82991;DHT22;72806;50.832;4.864;2023-09-19T19:46:46;20.30;68.20
82991;DHT22;72806;50.832;4.864;2023-09-19T19:49:14;20.30;68.20
82991;DHT22;72806;50.832;4.864;2023-09-19T19:51:41;20.30;68.20
82991;DHT22;72806;50.832;4.864;2023-09-19T19:54:11;20.30;68.20
82991;DHT22;72806;50.832;4.864;2023-09-19T19:56:39;20.30;68.30
82991;DHT22;72806;50.832;4.864;2023-09-19T19:59:08;20.20;68.30
82991;DHT22;72806;50.832;4.864;2023-09-19T20:01:35;20.20;68.30
82991;DHT22;72806;50.832;4.864;2023-09-19T20:04:03;20.20;68.40
82991;DHT22;72806;50.832;4.864;2023-09-19T20:06:30;20.20;68.50
82991;DHT22;72806;50.832;4.864;2023-09-19T20:08:57;20.20;68.70
82991;DHT22;72806;50.832;4.864;2023-09-19T20:11:26;20.20;68.70
82991;DHT22;72806;50.832;4.864;2023-09-19T20:13:55;20.20;68.70
82991;DHT22;72806;50.832;4.864;2023-09-19T20:16:23;20.20;68.80
82991;DHT22;72806;50.832;4.864;2023-09-19T20:18:58;20.20;68.90
82991;DHT22;72806;50.832;4.864;2023-09-19T20:21:25;20.20;68.90
82991;DHT22;72806;50.832;4.864;2023-09-19T20:23:54;20.20;68.80
82991;DHT22;72806;50.832;4.864;2023-09-19T20:26:21;20.20;68.90
82991;DHT22;72806;50.832;4.864;2023-09-19T20:28:50;20.20;68.80
82991;DHT22;72806;50.832;4.864;2023-09-19T20:31:17;20.10;69.00
82991;DHT22;72806;50.832;4.864;2023-09-19T20:33:45;20.10;69.20
82991;DHT22;72806;50.832;4.864;2023-09-19T20:36:14;20.10;69.30
82991;DHT22;72806;50.832;4.864;2023-09-19T20:38:41;20.10;69.40
82991;DHT22;72806;50.832;4.864;2023-09-19T20:41:08;20.10;69.70
82991;DHT22;72806;50.832;4.864;2023-09-19T20:43:35;20.10;69.80
82991;DHT22;72806;50.832;4.864;2023-09-19T20:46:07;20.10;69.90
82991;DHT22;72806;50.832;4.864;2023-09-19T20:48:36;20.10;70.10
82991;DHT22;72806;50.832;4.864;2023-09-19T20:51:07;20.20;70.20
82991;DHT22;72806;50.832;4.864;2023-09-19T20:53:35;20.20;70.20
82991;DHT22;72806;50.832;4.864;2023-09-19T20:56:03;20.20;70.30
82991;DHT22;72806;50.832;4.864;2023-09-19T20:58:31;20.20;70.30
82991;DHT22;72806;50.832;4.864;2023-09-19T21:01:00;20.30;70.30
82991;DHT22;72806;50.832;4.864;2023-09-19T21:03:30;20.30;70.20
82991;DHT22;72806;50.832;4.864;2023-09-19T21:06:01;20.30;70.30